KSTL/STL METAR and TAF weather

Enter ICAO airport designator
Station Type Date Time Source
KSTL METAR 2017/02/19 22:51 UTC NOAA

KSTL 192251Z 12012KT 10SM SCT250 21/11 A3002 RMK AO2 SLP164 T02060106 $


Station Type Date Time Source
KSTL Decoded METAR 2017/02/19 22:51 UTC NOAA

LAMBERT-ST LOUIS INTERNATIONAL AIRPORT , MO, United States (KSTL) 38-45N 90-22W 171M
Feb 19, 2017 - 05:51 PM EST / 2017.02.19 2251 UTC
Wind: from the ESE (120 degrees) at 14 MPH (12 KT):0
Visibility: 10 mile(s):0
Sky conditions: partly cloudy
Temperature: 69.1 F (20.6 C)
Dew Point: 51.1 F (10.6 C)
Relative Humidity: 52%
Pressure (altimeter): 30.02 in. Hg (1016 hPa)
ob: KSTL 192251Z 12012KT 10SM SCT250 21/11 A3002 RMK AO2 SLP164 T02060106
cycle: 23

Station Type Date Time Source
KSTL TAF 2017/02/19 21:12 UTC NOAA

TAF
AMD KSTL 192111Z 1921/2024 11009KT P6SM SCT250
FM201100 14006KT 3SM BR BKN030
FM201400 15007KT P6SM VCSH BKN045


Example: see airport list